Terminal Aerodrome Forecast
Issued by NWS Wilmington, NC

Home | Current Version | Previous Version | Text Only | Print | Product List | Glossary On
Versions: 1 2 3 4 5 6 7 8 9 10 11 12 13 14 15 16 17 18 19
000
FTUS42 KILM 270525
TAFILM
TAF
KILM 270525Z 2706/2806 02005KT P6SM BKN060 BKN120
      TEMPO 2706/2708 6SM -SHRA
     FM271000 35006KT P6SM SCT080 BKN250
     FM271400 31008KT P6SM FEW050 SCT250=

USA.gov is the U.S. government's official web portal to all federal, state and local government web resources and services.